Terminal Aerodrome Forecast
Issued by NWS

Home | Current Version | Previous Version | Text Only | Print | Product List | Glossary On
Versions: 1 2 3 4 5 6 7 8 9 10 11 12 13
000
FTUS43 KGRB 011900 AAA
TAFATW
TAF AMD
KATW 011936Z 0120/0218 23011G17KT P6SM SCT025 BKN150
      TEMPO 0122/0124 -SN BKN025
     FM020000 25010G16KT P6SM SCT025
     FM020500 28007KT P6SM SKC=

USA.gov is the U.S. government's official web portal to all federal, state and local government web resources and services.